Terminal Aerodrome Forecast
Issued by NWS Columbia, SC

Current Version | Previous Version | Text Only | Print | Product List | Glossary On
Versions: 1 2 3 4 5 6 7 8 9 10 11 12 13 14 15 16 17 18 19 20 21 22 23 24 25 26 27 28 29 30 31
888
FTUS42 KCAE 261005 AAC
TAFCAE
TAF AMD
KCAE 261005Z 2610/2706 10004KT 4SM BR SCT003 OVC012
      TEMPO 2610/2613 OVC003
     FM261500 VRB04KT P6SM SCT025
     FM261800 12005KT P6SM BKN040=

USA.gov is the U.S. government's official web portal to all federal, state and local government web resources and services.